Time;durP1;ratioP1;P1;durP2;ratioP2;P2;SDS_P1;SDS_P2;PMS_P1;PMS_P2;Temp;Humidity;BMP_temperature;BMP_pressure;BME280_temperature;BME280_humidity;BME280_pressure;Samples;Min_cycle;Max_cycle;Signal;HPM_P1;HPM_P2
2022/03/12 00:00:43;;;;;;;;;2.00;2.00;;;;;;;;5029319;28;45420;-67
2022/03/12 00:03:09;;;;;;;;;4.50;4.50;;;;;;;;5031773;28;46337;-68
2022/03/12 00:05:35;;;;;;;;;2.50;2.25;;;;;;;;5033580;28;46499;-68
2022/03/12 00:08:03;;;;;;;;;3.00;3.00;;;;;;;;5025438;28;45476;-68
2022/03/12 00:10:32;;;;;;;;;2.00;2.00;;;;;;;;5028346;28;45502;-68
2022/03/12 00:12:58;;;;;;;;;3.00;3.00;;;;;;;;5021741;28;48582;-66
2022/03/12 00:15:23;;;;;;;;;2.00;2.00;;;;;;;;5011957;28;45830;-68
2022/03/12 00:17:49;;;;;;;;;2.25;2.25;;;;;;;;5013382;28;45720;-67
2022/03/12 00:20:16;;;;;;;;;4.00;3.00;;;;;;;;5027274;28;45549;-67
2022/03/12 00:22:45;;;;;;;;;3.00;2.00;;;;;;;;5018377;28;48479;-67
2022/03/12 00:25:11;;;;;;;;;2.50;2.50;;;;;;;;5006112;28;45315;-67
2022/03/12 00:27:39;;;;;;;;;2.50;2.00;;;;;;;;5004221;28;45459;-69
2022/03/12 00:30:05;;;;;;;;;2.00;2.00;;;;;;;;5012312;28;45502;-67
2022/03/12 00:32:30;;;;;;;;;2.00;2.00;;;;;;;;5006335;28;46540;-68
2022/03/12 00:34:55;;;;;;;;;3.25;3.25;;;;;;;;5005378;28;46487;-69
2022/03/12 00:37:21;;;;;;;;;3.00;3.00;;;;;;;;5009438;28;45474;-67
2022/03/12 00:39:47;;;;;;;;;2.00;2.00;;;;;;;;5010199;28;45499;-69
2022/03/12 00:42:13;;;;;;;;;2.25;2.25;;;;;;;;5003923;28;45652;-68
2022/03/12 00:44:38;;;;;;;;;4.25;4.25;;;;;;;;5022490;28;45550;-68
2022/03/12 00:47:04;;;;;;;;;2.50;2.50;;;;;;;;5016584;28;45947;-68
2022/03/12 00:49:29;;;;;;;;;3.50;3.50;;;;;;;;5015064;28;45440;-67
2022/03/12 00:51:55;;;;;;;;;3.00;3.00;;;;;;;;5014336;28;48675;-68
2022/03/12 00:54:21;;;;;;;;;5.00;2.75;;;;;;;;5026714;28;45352;-68
2022/03/12 00:56:46;;;;;;;;;4.00;3.25;;;;;;;;5034770;28;45465;-68
2022/03/12 00:59:11;;;;;;;;;3.50;3.50;;;;;;;;5026518;28;45499;-67
2022/03/12 01:01:37;;;;;;;;;3.00;3.00;;;;;;;;5023761;28;47452;-68
2022/03/12 01:04:02;;;;;;;;;3.25;3.25;;;;;;;;5024146;28;45473;-69
2022/03/12 01:06:28;;;;;;;;;4.50;3.00;;;;;;;;5026345;28;50161;-68
2022/03/12 01:08:53;;;;;;;;;2.50;2.50;;;;;;;;5034582;28;45414;-68
2022/03/12 01:11:19;;;;;;;;;3.50;3.50;;;;;;;;5026146;28;48866;-68
2022/03/12 01:13:44;;;;;;;;;3.00;3.00;;;;;;;;5026859;28;45576;-69
2022/03/12 01:16:26;;;;;;;;;5.25;4.00;;;;;;;;5028338;28;45304;-68
2022/03/12 01:18:52;;;;;;;;;5.75;3.75;;;;;;;;5029276;28;45448;-69
2022/03/12 01:21:18;;;;;;;;;3.25;2.00;;;;;;;;5028140;28;47804;-69
2022/03/12 01:23:44;;;;;;;;;3.00;3.00;;;;;;;;5040525;28;45424;-67
2022/03/12 01:26:10;;;;;;;;;3.75;3.00;;;;;;;;5027552;28;45433;-68
2022/03/12 01:28:36;;;;;;;;;4.50;3.25;;;;;;;;5025204;28;45456;-68
2022/03/12 01:31:01;;;;;;;;;5.00;3.75;;;;;;;;5024062;28;48856;-69
2022/03/12 01:33:27;;;;;;;;;3.50;3.25;;;;;;;;5026850;28;45372;-69
2022/03/12 01:35:52;;;;;;;;;3.25;3.25;;;;;;;;5034697;28;45341;-68
2022/03/12 01:38:17;;;;;;;;;4.25;2.50;;;;;;;;5026954;28;45272;-68
2022/03/12 01:40:43;;;;;;;;;5.25;3.00;;;;;;;;5025173;28;47674;-69
2022/03/12 01:43:08;;;;;;;;;3.00;3.00;;;;;;;;5026311;28;45436;-68
2022/03/12 01:45:35;;;;;;;;;2.25;2.25;;;;;;;;5025086;28;45522;-68
2022/03/12 01:48:02;;;;;;;;;4.50;3.00;;;;;;;;5032270;28;45499;-67
2022/03/12 01:50:29;;;;;;;;;3.00;3.00;;;;;;;;5028556;28;45789;-68
2022/03/12 01:52:58;;;;;;;;;4.50;3.00;;;;;;;;5024694;28;45544;-68
2022/03/12 01:55:24;;;;;;;;;3.00;2.50;;;;;;;;5026202;28;45441;-67
2022/03/12 01:57:50;;;;;;;;;2.25;2.00;;;;;;;;5027228;28;45562;-68
2022/03/12 02:00:23;;;;;;;;;3.00;3.00;;;;;;;;5029066;28;46495;-69
2022/03/12 02:02:54;;;;;;;;;3.00;2.75;;;;;;;;5032653;28;46290;-69
2022/03/12 02:05:20;;;;;;;;;2.50;2.50;;;;;;;;5026599;28;45464;-68
2022/03/12 02:07:46;;;;;;;;;3.50;3.25;;;;;;;;5025800;28;45415;-68
2022/03/12 02:10:20;;;;;;;;;5.00;4.50;;;;;;;;5015038;28;46896;-69
2022/03/12 02:12:45;;;;;;;;;6.75;3.00;;;;;;;;5005893;28;45515;-68
2022/03/12 02:15:10;;;;;;;;;2.50;2.50;;;;;;;;5011517;28;45443;-68
2022/03/12 02:17:39;;;;;;;;;2.75;2.75;;;;;;;;5019255;28;45433;-68
2022/03/12 02:20:05;;;;;;;;;3.50;3.00;;;;;;;;5023757;28;46263;-67
2022/03/12 02:22:30;;;;;;;;;4.00;3.00;;;;;;;;5025792;28;45405;-67
2022/03/12 02:24:55;;;;;;;;;1.00;1.00;;;;;;;;5013042;28;45478;-67
2022/03/12 02:27:25;;;;;;;;;3.25;2.25;;;;;;;;5005445;28;45635;-68
2022/03/12 02:29:57;;;;;;;;;5.25;4.75;;;;;;;;5001109;28;48019;-67
2022/03/12 02:32:22;;;;;;;;;4.25;3.00;;;;;;;;5008118;28;45551;-68
2022/03/12 02:34:48;;;;;;;;;2.75;2.75;;;;;;;;5017366;28;45407;-68
2022/03/12 02:37:29;;;;;;;;;5.00;5.00;;;;;;;;5027242;28;45577;-68
2022/03/12 02:39:55;;;;;;;;;3.75;3.75;;;;;;;;5018382;28;47467;-68
2022/03/12 02:42:20;;;;;;;;;7.25;3.50;;;;;;;;5010934;28;45378;-68
2022/03/12 02:44:47;;;;;;;;;3.00;3.00;;;;;;;;5032497;28;45387;-69
2022/03/12 02:47:15;;;;;;;;;4.00;4.00;;;;;;;;5018073;28;45397;-68
2022/03/12 02:49:43;;;;;;;;;4.50;3.50;;;;;;;;5014998;28;45714;-68
2022/03/12 02:52:08;;;;;;;;;8.25;4.00;;;;;;;;5018106;28;45643;-68
2022/03/12 02:54:34;;;;;;;;;3.00;3.00;;;;;;;;5003016;28;45453;-68
2022/03/12 02:57:01;;;;;;;;;4.00;2.25;;;;;;;;5006349;28;45462;-69
2022/03/12 02:59:27;;;;;;;;;3.00;3.00;;;;;;;;5005624;28;46599;-68
2022/03/12 03:01:54;;;;;;;;;3.00;2.25;;;;;;;;5002782;28;45512;-68
2022/03/12 03:04:22;;;;;;;;;3.00;3.00;;;;;;;;5002173;28;45554;-68
2022/03/12 03:06:47;;;;;;;;;4.75;3.25;;;;;;;;5007765;28;45496;-69
2022/03/12 03:09:13;;;;;;;;;1.00;1.00;;;;;;;;5008759;28;46856;-67
2022/03/12 03:11:39;;;;;;;;;5.50;4.75;;;;;;;;5011305;28;45430;-67
2022/03/12 03:14:06;;;;;;;;;5.00;5.00;;;;;;;;5009650;28;45515;-69
2022/03/12 03:16:31;;;;;;;;;2.75;2.75;;;;;;;;5010396;28;45513;-68
2022/03/12 03:18:58;;;;;;;;;8.25;3.50;;;;;;;;5012711;28;45777;-69
2022/03/12 03:21:24;;;;;;;;;3.75;3.75;;;;;;;;5014556;28;45530;-68
2022/03/12 03:23:49;;;;;;;;;2.00;2.00;;;;;;;;5016406;28;45337;-67
2022/03/12 03:26:44;;;;;;;;;2.75;1.50;;;;;;;;5011948;28;45587;-69
2022/03/12 03:29:09;;;;;;;;;3.00;3.00;;;;;;;;5012097;28;47530;-68
2022/03/12 03:31:35;;;;;;;;;2.75;2.75;;;;;;;;5012835;28;45319;-67
2022/03/12 03:34:01;;;;;;;;;4.50;3.00;;;;;;;;5014519;28;45423;-67
2022/03/12 03:36:26;;;;;;;;;4.50;3.00;;;;;;;;5011369;28;45499;-68
2022/03/12 03:38:52;;;;;;;;;3.25;3.00;;;;;;;;5014686;28;47499;-68
2022/03/12 03:41:17;;;;;;;;;5.00;2.25;;;;;;;;5011470;28;45691;-68
2022/03/12 03:43:46;;;;;;;;;4.00;4.00;;;;;;;;5013039;28;45761;-67
2022/03/12 03:46:15;;;;;;;;;5.50;3.25;;;;;;;;5011186;28;45453;-68
2022/03/12 03:48:40;;;;;;;;;4.50;3.25;;;;;;;;5010944;28;46410;-69
2022/03/12 03:51:06;;;;;;;;;2.25;2.25;;;;;;;;5015690;28;45663;-67
2022/03/12 03:53:31;;;;;;;;;3.00;1.75;;;;;;;;5015873;28;45373;-67
2022/03/12 03:55:58;;;;;;;;;6.25;5.00;;;;;;;;5012923;28;45421;-68
2022/03/12 03:58:25;;;;;;;;;3.00;3.00;;;;;;;;5013072;28;46363;-66
2022/03/12 04:00:54;;;;;;;;;5.75;3.00;;;;;;;;5012592;28;45485;-67
2022/03/12 04:03:20;;;;;;;;;2.75;2.75;;;;;;;;5013994;28;45524;-68
2022/03/12 04:05:45;;;;;;;;;4.75;2.75;;;;;;;;5015801;28;45375;-68
2022/03/12 04:08:10;;;;;;;;;6.00;4.00;;;;;;;;5012438;28;48364;-68
2022/03/12 04:10:36;;;;;;;;;5.75;3.25;;;;;;;;5014002;28;45325;-67
2022/03/12 04:13:09;;;;;;;;;2.00;2.00;;;;;;;;5010178;28;45361;-67
2022/03/12 04:15:37;;;;;;;;;3.00;3.00;;;;;;;;5012633;28;45556;-68
2022/03/12 04:18:05;;;;;;;;;2.25;2.00;;;;;;;;5013494;28;47185;-67
2022/03/12 04:20:30;;;;;;;;;6.75;4.00;;;;;;;;5013709;28;46512;-68
2022/03/12 04:22:56;;;;;;;;;4.00;4.00;;;;;;;;5012303;28;45359;-69
2022/03/12 04:25:21;;;;;;;;;2.50;2.50;;;;;;;;5008292;28;45374;-68
2022/03/12 04:27:47;;;;;;;;;3.00;2.25;;;;;;;;5009857;28;47782;-68
2022/03/12 04:30:13;;;;;;;;;3.00;3.00;;;;;;;;5010828;28;45382;-68
2022/03/12 04:32:39;;;;;;;;;4.00;3.00;;;;;;;;5013407;28;45405;-68
2022/03/12 04:35:05;;;;;;;;;3.50;3.50;;;;;;;;5010768;28;45655;-68
2022/03/12 04:37:31;;;;;;;;;4.00;4.00;;;;;;;;5011933;28;48764;-68
2022/03/12 04:39:56;;;;;;;;;4.25;4.00;;;;;;;;5012514;28;45342;-68
2022/03/12 04:42:22;;;;;;;;;5.00;4.00;;;;;;;;5013520;28;45525;-68
2022/03/12 04:44:47;;;;;;;;;4.75;4.00;;;;;;;;5013844;28;45652;-67
2022/03/12 04:47:13;;;;;;;;;4.00;3.50;;;;;;;;5011393;28;46657;-69
2022/03/12 04:49:38;;;;;;;;;3.75;3.75;;;;;;;;5006876;28;46071;-68
2022/03/12 04:52:04;;;;;;;;;4.75;3.00;;;;;;;;5011898;28;45475;-67
2022/03/12 04:54:32;;;;;;;;;3.00;3.00;;;;;;;;5013125;28;45392;-68
2022/03/12 04:56:58;;;;;;;;;2.25;2.25;;;;;;;;5012765;28;47260;-67
2022/03/12 04:59:23;;;;;;;;;4.75;3.50;;;;;;;;5011865;28;45622;-67
2022/03/12 05:01:48;;;;;;;;;6.00;5.00;;;;;;;;5013104;28;45445;-68
2022/03/12 05:04:13;;;;;;;;;5.00;2.50;;;;;;;;5012043;28;45469;-67
2022/03/12 05:06:39;;;;;;;;;3.00;3.00;;;;;;;;5003087;28;45400;-68
2022/03/12 05:09:05;;;;;;;;;5.50;4.25;;;;;;;;5013284;28;45367;-67
2022/03/12 05:11:32;;;;;;;;;4.00;3.00;;;;;;;;5012397;28;45594;-68
2022/03/12 05:13:57;;;;;;;;;3.00;3.00;;;;;;;;5010761;28;45569;-67
2022/03/12 05:16:22;;;;;;;;;2.75;2.75;;;;;;;;5010470;28;45992;-67
2022/03/12 05:18:47;;;;;;;;;2.75;2.75;;;;;;;;5011636;28;45671;-67
2022/03/12 05:21:13;;;;;;;;;3.00;3.00;;;;;;;;5011417;28;45410;-68
2022/03/12 05:23:38;;;;;;;;;3.00;3.00;;;;;;;;5013115;28;45733;-68
2022/03/12 05:26:05;;;;;;;;;3.50;3.50;;;;;;;;5011731;28;46673;-68
2022/03/12 05:28:32;;;;;;;;;3.00;3.00;;;;;;;;5011205;28;45320;-67
2022/03/12 05:30:59;;;;;;;;;5.25;3.50;;;;;;;;5010511;28;45524;-67
2022/03/12 05:33:25;;;;;;;;;4.25;2.00;;;;;;;;5011326;28;45446;-68
2022/03/12 05:35:54;;;;;;;;;5.25;4.25;;;;;;;;5009319;28;45597;-68
2022/03/12 05:38:20;;;;;;;;;4.25;4.25;;;;;;;;5011636;28;45461;-67
2022/03/12 05:40:48;;;;;;;;;6.50;5.25;;;;;;;;5012584;28;45311;-68
2022/03/12 05:43:17;;;;;;;;;5.25;3.75;;;;;;;;5012136;28;45470;-68
2022/03/12 05:45:47;;;;;;;;;3.50;3.50;;;;;;;;5009620;28;48089;-68
2022/03/12 05:48:14;;;;;;;;;11.00;5.00;;;;;;;;5000400;28;46200;-68
2022/03/12 05:50:39;;;;;;;;;4.75;4.75;;;;;;;;5001047;28;45391;-68
2022/03/12 05:53:08;;;;;;;;;4.25;3.50;;;;;;;;5007617;28;45379;-69
2022/03/12 05:55:35;;;;;;;;;3.50;3.50;;;;;;;;5011896;28;46764;-68
2022/03/12 05:58:00;;;;;;;;;5.00;4.50;;;;;;;;5010008;28;45442;-68
2022/03/12 06:00:25;;;;;;;;;6.00;4.50;;;;;;;;5010128;28;45433;-68
2022/03/12 06:02:51;;;;;;;;;5.25;4.25;;;;;;;;5012298;28;45390;-67
2022/03/12 06:05:17;;;;;;;;;6.50;4.25;;;;;;;;5008317;28;48238;-68
2022/03/12 06:07:46;;;;;;;;;3.00;3.00;;;;;;;;5011291;28;45967;-68
2022/03/12 06:10:15;;;;;;;;;6.00;3.75;;;;;;;;5010159;28;45459;-69
2022/03/12 06:12:42;;;;;;;;;5.50;5.00;;;;;;;;5003420;28;45733;-70
2022/03/12 06:15:08;;;;;;;;;5.50;5.25;;;;;;;;5010136;28;46553;-70
2022/03/12 06:17:33;;;;;;;;;6.50;6.00;;;;;;;;5009428;28;45409;-71
2022/03/12 06:19:58;;;;;;;;;4.50;4.00;;;;;;;;5010574;28;45417;-70
2022/03/12 06:22:23;;;;;;;;;5.25;4.50;;;;;;;;5011704;28;45356;-69
2022/03/12 06:24:49;;;;;;;;;8.25;8.00;;;;;;;;5011480;28;45967;-71
2022/03/12 06:27:17;;;;;;;;;6.75;6.00;;;;;;;;5009633;28;45542;-70
2022/03/12 06:29:42;;;;;;;;;7.25;7.00;;;;;;;;5012427;28;45374;-69
2022/03/12 06:32:08;;;;;;;;;10.50;8.00;;;;;;;;5008297;28;45511;-71
2022/03/12 06:34:35;;;;;;;;;5.75;5.75;;;;;;;;5009853;28;48427;-71
2022/03/12 06:37:00;;;;;;;;;6.50;6.50;;;;;;;;5010050;28;45599;-70
2022/03/12 06:39:25;;;;;;;;;10.00;8.00;;;;;;;;5007241;28;45906;-71
2022/03/12 06:41:51;;;;;;;;;5.25;4.75;;;;;;;;5011890;28;45892;-70
2022/03/12 06:44:19;;;;;;;;;9.50;6.00;;;;;;;;5010708;28;45456;-72
2022/03/12 06:46:44;;;;;;;;;7.75;7.75;;;;;;;;5007079;28;45385;-70
2022/03/12 06:49:10;;;;;;;;;5.00;5.00;;;;;;;;4998119;28;45411;-70
2022/03/12 06:51:35;;;;;;;;;4.75;4.75;;;;;;;;5008814;28;47641;-69
2022/03/12 06:54:00;;;;;;;;;6.00;5.00;;;;;;;;5010678;28;48586;-68
2022/03/12 06:56:26;;;;;;;;;4.00;4.00;;;;;;;;5008918;28;45547;-70
2022/03/12 06:58:51;;;;;;;;;4.00;3.00;;;;;;;;5009629;28;45534;-70
2022/03/12 07:01:16;;;;;;;;;3.00;3.00;;;;;;;;5009692;28;45532;-70
2022/03/12 07:03:42;;;;;;;;;2.75;2.75;;;;;;;;5011295;28;45718;-71
2022/03/12 07:06:07;;;;;;;;;2.50;2.00;;;;;;;;5011574;28;45330;-70
2022/03/12 07:08:33;;;;;;;;;6.00;5.00;;;;;;;;5012768;28;45299;-70
2022/03/12 07:11:00;;;;;;;;;3.75;3.75;;;;;;;;5009882;28;45496;-69
2022/03/12 07:13:26;;;;;;;;;7.25;5.00;;;;;;;;5007422;28;47781;-70
2022/03/12 07:15:51;;;;;;;;;5.00;5.00;;;;;;;;5010708;28;45430;-69
2022/03/12 07:18:16;;;;;;;;;6.00;3.50;;;;;;;;5010010;28;45343;-70
2022/03/12 07:20:42;;;;;;;;;5.50;5.50;;;;;;;;5012585;28;45201;-70
2022/03/12 07:23:07;;;;;;;;;7.75;5.75;;;;;;;;5012113;28;45599;-68
2022/03/12 07:25:33;;;;;;;;;6.25;5.50;;;;;;;;5006280;28;47096;-69
2022/03/12 07:28:00;;;;;;;;;9.00;6.25;;;;;;;;5007580;28;45488;-69
2022/03/12 07:30:25;;;;;;;;;5.00;4.50;;;;;;;;5009608;28;45511;-68
2022/03/12 07:32:50;;;;;;;;;5.00;5.00;;;;;;;;5012803;28;46340;-69
2022/03/12 07:35:17;;;;;;;;;6.25;6.25;;;;;;;;5010598;28;45513;-69
2022/03/12 07:37:43;;;;;;;;;4.75;4.00;;;;;;;;5009235;28;45403;-68
2022/03/12 07:40:09;;;;;;;;;5.00;4.75;;;;;;;;5007076;28;45499;-69
2022/03/12 07:42:35;;;;;;;;;4.25;4.25;;;;;;;;5001880;28;48657;-69
2022/03/12 07:45:00;;;;;;;;;4.00;4.00;;;;;;;;5011400;28;45490;-69
2022/03/12 07:47:25;;;;;;;;;4.00;4.00;;;;;;;;5008813;28;45465;-69
2022/03/12 07:49:51;;;;;;;;;6.25;5.25;;;;;;;;5008888;28;45425;-69
2022/03/12 07:52:16;;;;;;;;;6.00;6.00;;;;;;;;5010425;28;46078;-68
2022/03/12 07:54:41;;;;;;;;;5.75;4.75;;;;;;;;5009974;28;45417;-70
2022/03/12 07:57:06;;;;;;;;;6.00;4.50;;;;;;;;5011353;28;45437;-70
2022/03/12 07:59:34;;;;;;;;;3.50;3.50;;;;;;;;5026621;28;45388;-69
2022/03/12 08:02:00;;;;;;;;;5.00;5.00;;;;;;;;5010062;28;45776;-70
2022/03/12 08:04:26;;;;;;;;;3.50;3.50;;;;;;;;5012125;28;45400;-70
2022/03/12 08:06:52;;;;;;;;;6.25;4.75;;;;;;;;5012479;28;45631;-70
2022/03/12 08:09:17;;;;;;;;;4.00;4.00;;;;;;;;5013157;28;45452;-70
2022/03/12 08:11:43;;;;;;;;;4.50;4.50;;;;;;;;5004091;28;47594;-70
2022/03/12 08:14:16;;;;;;;;;8.25;6.00;;;;;;;;5010202;28;45923;-69
2022/03/12 08:16:41;;;;;;;;;7.75;5.75;;;;;;;;5013247;28;45475;-68
2022/03/12 08:19:08;;;;;;;;;6.25;5.25;;;;;;;;5011436;28;45454;-70
2022/03/12 08:21:34;;;;;;;;;1.00;1.00;;;;;;;;5011386;28;48707;-69
2022/03/12 08:23:59;;;;;;;;;6.50;6.50;;;;;;;;5005752;28;45868;-71
2022/03/12 08:26:25;;;;;;;;;4.75;4.00;;;;;;;;5013264;28;45516;-69
2022/03/12 08:28:50;;;;;;;;;7.50;7.50;;;;;;;;5008667;28;46057;-69
2022/03/12 08:31:16;;;;;;;;;10.75;9.75;;;;;;;;5011666;28;45681;-70
2022/03/12 08:33:41;;;;;;;;;5.75;5.75;;;;;;;;5012161;28;46312;-69
2022/03/12 08:36:06;;;;;;;;;9.75;9.75;;;;;;;;5008480;28;45442;-70
2022/03/12 08:38:34;;;;;;;;;8.75;7.50;;;;;;;;5011934;28;45441;-69
2022/03/12 08:40:59;;;;;;;;;5.50;5.00;;;;;;;;5012340;28;47553;-69
2022/03/12 08:43:25;;;;;;;;;4.00;4.00;;;;;;;;5013361;28;49746;-69
2022/03/12 08:45:50;;;;;;;;;5.00;4.00;;;;;;;;5010888;28;45572;-70
2022/03/12 08:48:16;;;;;;;;;4.00;4.00;;;;;;;;5013490;28;45687;-69
2022/03/12 08:50:43;;;;;;;;;5.00;5.00;;;;;;;;5013771;28;47699;-70
2022/03/12 08:53:09;;;;;;;;;9.00;9.00;;;;;;;;5011788;28;45539;-70
2022/03/12 08:55:34;;;;;;;;;10.00;10.00;;;;;;;;5010712;28;45887;-70
2022/03/12 08:58:00;;;;;;;;;11.75;10.75;;;;;;;;5009781;28;45865;-69
2022/03/12 09:00:25;;;;;;;;;6.50;5.25;;;;;;;;5011113;28;46707;-69
2022/03/12 09:02:50;;;;;;;;;4.00;4.00;;;;;;;;5009809;28;45448;-69
2022/03/12 09:05:16;;;;;;;;;10.00;6.00;;;;;;;;5009331;28;45797;-68
2022/03/12 09:07:42;;;;;;;;;5.00;5.00;;;;;;;;5010715;28;45473;-66
2022/03/12 09:10:10;;;;;;;;;5.25;5.25;;;;;;;;5011718;28;45575;-67
2022/03/12 09:12:36;;;;;;;;;5.50;4.50;;;;;;;;5009264;28;45446;-68
2022/03/12 09:15:01;;;;;;;;;5.50;5.50;;;;;;;;5010313;28;45438;-68
2022/03/12 09:17:26;;;;;;;;;5.75;5.75;;;;;;;;5009132;28;45524;-68
2022/03/12 09:19:51;;;;;;;;;5.50;5.50;;;;;;;;5012882;28;45422;-67
2022/03/12 09:22:17;;;;;;;;;3.50;3.50;;;;;;;;5009822;28;45286;-68
2022/03/12 09:24:42;;;;;;;;;5.00;4.50;;;;;;;;5011331;28;45466;-68
2022/03/12 09:27:08;;;;;;;;;4.50;3.50;;;;;;;;5012711;28;45414;-69
2022/03/12 09:29:35;;;;;;;;;4.75;3.75;;;;;;;;5011966;28;47696;-68
2022/03/12 09:32:00;;;;;;;;;5.25;5.25;;;;;;;;5009521;28;45943;-67
2022/03/12 09:34:25;;;;;;;;;5.00;5.00;;;;;;;;5009983;28;45520;-69
2022/03/12 09:36:51;;;;;;;;;6.00;4.00;;;;;;;;5008142;28;45574;-69
2022/03/12 09:39:16;;;;;;;;;2.75;2.00;;;;;;;;5002605;28;45874;-69
2022/03/12 09:41:43;;;;;;;;;6.50;4.50;;;;;;;;5011698;28;45386;-69
2022/03/12 09:44:08;;;;;;;;;7.25;6.75;;;;;;;;5010914;28;45358;-68
2022/03/12 09:46:34;;;;;;;;;4.25;4.25;;;;;;;;5010369;28;45369;-68
2022/03/12 09:48:59;;;;;;;;;4.50;4.50;;;;;;;;5000731;28;46297;-68
2022/03/12 09:51:28;;;;;;;;;5.00;5.00;;;;;;;;5010992;28;45520;-68
2022/03/12 09:53:54;;;;;;;;;3.75;3.00;;;;;;;;5007379;28;45469;-70
2022/03/12 09:56:19;;;;;;;;;4.75;4.00;;;;;;;;5008398;28;45444;-69
2022/03/12 09:58:44;;;;;;;;;5.00;4.00;;;;;;;;5009962;28;47564;-70
2022/03/12 10:01:10;;;;;;;;;4.50;4.50;;;;;;;;5010542;28;45496;-68
2022/03/12 10:03:37;;;;;;;;;3.50;3.50;;;;;;;;4999967;28;45430;-70
2022/03/12 10:06:03;;;;;;;;;4.25;4.25;;;;;;;;5012062;28;45674;-69
2022/03/12 10:08:28;;;;;;;;;4.00;3.00;;;;;;;;5011942;28;48142;-71
2022/03/12 10:10:54;;;;;;;;;4.00;3.00;;;;;;;;5011911;28;45373;-69
2022/03/12 10:13:19;;;;;;;;;6.00;5.00;;;;;;;;5010446;28;45504;-69
2022/03/12 10:15:44;;;;;;;;;5.00;5.00;;;;;;;;5012196;28;45402;-69
2022/03/12 10:18:13;;;;;;;;;4.25;3.25;;;;;;;;5012088;28;45558;-69
2022/03/12 10:20:39;;;;;;;;;6.25;5.00;;;;;;;;5012086;28;45540;-69
2022/03/12 10:23:05;;;;;;;;;6.75;5.25;;;;;;;;5011940;28;45461;-69
2022/03/12 10:25:30;;;;;;;;;4.00;4.00;;;;;;;;5010804;28;45489;-68
2022/03/12 10:27:55;;;;;;;;;5.75;5.75;;;;;;;;5011853;28;45570;-69
2022/03/12 10:30:22;;;;;;;;;7.25;6.00;;;;;;;;5010467;28;46244;-70
2022/03/12 10:32:47;;;;;;;;;4.00;4.00;;;;;;;;5012710;28;45453;-69
2022/03/12 10:35:14;;;;;;;;;5.25;3.25;;;;;;;;5011558;28;45429;-70
2022/03/12 10:37:40;;;;;;;;;5.00;5.00;;;;;;;;5011267;28;45669;-69
2022/03/12 10:40:06;;;;;;;;;6.50;5.00;;;;;;;;5010055;28;46152;-71
2022/03/12 10:42:31;;;;;;;;;2.00;2.00;;;;;;;;5009134;28;45462;-70
2022/03/12 10:45:10;;;;;;;;;4.25;4.25;;;;;;;;5013000;28;45389;-70
2022/03/12 10:47:43;;;;;;;;;3.50;3.50;;;;;;;;5009946;28;48706;-70
2022/03/12 10:50:14;;;;;;;;;5.50;4.50;;;;;;;;5011081;28;46474;-70
2022/03/12 10:52:41;;;;;;;;;6.25;5.00;;;;;;;;5011307;28;45402;-70
2022/03/12 10:55:11;;;;;;;;;6.25;5.25;;;;;;;;5009816;28;45461;-70
2022/03/12 10:57:37;;;;;;;;;5.00;5.00;;;;;;;;5011141;28;45667;-70
2022/03/12 11:00:08;;;;;;;;;4.50;4.00;;;;;;;;5011136;28;45397;-70
2022/03/12 11:02:33;;;;;;;;;6.75;4.50;;;;;;;;5012858;28;45415;-70
2022/03/12 11:05:02;;;;;;;;;5.25;4.25;;;;;;;;5009579;28;45670;-69
2022/03/12 11:07:29;;;;;;;;;2.00;2.00;;;;;;;;5010711;28;48497;-69
2022/03/12 11:09:54;;;;;;;;;4.50;3.00;;;;;;;;5010774;28;46053;-68
2022/03/12 11:12:30;;;;;;;;;3.00;3.00;;;;;;;;5011341;28;45291;-69
2022/03/12 11:15:05;;;;;;;;;3.00;2.00;;;;;;;;5008005;28;45856;-70
2022/03/12 11:17:44;;;;;;;;;4.25;2.25;;;;;;;;5010696;28;47776;-70
2022/03/12 11:20:17;;;;;;;;;4.00;4.00;;;;;;;;5009377;28;45556;-70
2022/03/12 11:22:43;;;;;;;;;9.75;6.75;;;;;;;;5008222;28;45500;-71
2022/03/12 11:25:10;;;;;;;;;7.25;5.75;;;;;;;;5010421;28;45793;-70
2022/03/12 11:27:35;;;;;;;;;14.50;9.50;;;;;;;;5003146;28;48886;-70
2022/03/12 11:30:04;;;;;;;;;6.75;6.00;;;;;;;;5011825;28;45430;-70
2022/03/12 11:32:34;;;;;;;;;7.00;4.75;;;;;;;;5027181;28;45382;-71
2022/03/12 11:35:06;;;;;;;;;2.25;2.25;;;;;;;;5009103;28;45511;-69
2022/03/12 11:37:34;;;;;;;;;7.25;7.25;;;;;;;;5005717;28;48104;-70
2022/03/12 11:39:59;;;;;;;;;9.25;9.25;;;;;;;;5013472;28;45909;-69
2022/03/12 11:42:32;;;;;;;;;11.00;10.00;;;;;;;;5012237;28;45478;-69
2022/03/12 11:44:58;;;;;;;;;8.50;6.50;;;;;;;;5008504;28;45449;-69
2022/03/12 11:47:25;;;;;;;;;9.25;7.00;;;;;;;;5009189;28;50242;-69
2022/03/12 11:49:51;;;;;;;;;7.00;4.00;;;;;;;;5002408;28;45425;-71
2022/03/12 11:52:16;;;;;;;;;6.00;6.00;;;;;;;;5010880;28;45924;-70
2022/03/12 11:54:43;;;;;;;;;21.00;15.00;;;;;;;;5007814;28;45353;-69
2022/03/12 11:57:09;;;;;;;;;11.25;10.00;;;;;;;;5009024;28;45796;-66
2022/03/12 11:59:35;;;;;;;;;11.25;7.25;;;;;;;;5006762;28;45219;-69
2022/03/12 12:02:04;;;;;;;;;7.75;7.75;;;;;;;;5009510;28;45608;-70
2022/03/12 12:04:32;;;;;;;;;10.00;10.00;;;;;;;;5007921;28;45578;-70
2022/03/12 12:06:59;;;;;;;;;10.75;10.25;;;;;;;;5013987;28;46646;-69
2022/03/12 12:09:24;;;;;;;;;16.50;12.25;;;;;;;;5001700;28;45616;-69
2022/03/12 12:11:49;;;;;;;;;9.50;9.50;;;;;;;;5007338;28;45511;-70
2022/03/12 12:14:18;;;;;;;;;6.00;6.00;;;;;;;;5015124;28;45386;-71
2022/03/12 12:16:43;;;;;;;;;5.00;5.00;;;;;;;;5012586;28;46546;-70
2022/03/12 12:19:09;;;;;;;;;7.25;6.25;;;;;;;;5012807;28;45581;-67
2022/03/12 12:21:34;;;;;;;;;7.50;6.50;;;;;;;;5012936;28;45660;-69
2022/03/12 12:24:19;;;;;;;;;6.00;5.50;;;;;;;;5014869;28;45381;-69
2022/03/12 12:26:57;;;;;;;;;9.00;6.75;;;;;;;;5014715;28;46640;-69
2022/03/12 12:29:34;;;;;;;;;6.75;6.75;;;;;;;;5013628;28;45482;-68
2022/03/12 12:32:03;;;;;;;;;3.00;3.00;;;;;;;;5012133;28;45509;-68
2022/03/12 12:34:29;;;;;;;;;4.00;4.00;;;;;;;;5012951;28;45509;-70
2022/03/12 12:37:00;;;;;;;;;4.00;4.00;;;;;;;;5013163;28;46770;-68
2022/03/12 12:39:26;;;;;;;;;4.00;2.50;;;;;;;;4996503;28;45428;-68
2022/03/12 12:41:56;;;;;;;;;6.00;5.00;;;;;;;;5014037;28;45522;-68
2022/03/12 12:44:40;;;;;;;;;4.00;3.00;;;;;;;;5012165;28;45981;-70
2022/03/12 12:47:07;;;;;;;;;6.75;5.50;;;;;;;;5013288;28;46392;-70
2022/03/12 12:49:40;;;;;;;;;2.50;2.00;;;;;;;;5010896;28;46031;-69
2022/03/12 12:52:06;;;;;;;;;5.00;4.75;;;;;;;;5013547;28;47706;-69
2022/03/12 12:54:43;;;;;;;;;5.00;4.00;;;;;;;;5013475;28;45469;-69
2022/03/12 12:57:11;;;;;;;;;2.25;2.25;;;;;;;;5015161;28;45634;-67
2022/03/12 12:59:38;;;;;;;;;3.00;3.00;;;;;;;;5011963;28;46360;-68
2022/03/12 13:02:03;;;;;;;;;4.25;4.25;;;;;;;;5013220;28;45480;-69
2022/03/12 13:04:42;;;;;;;;;4.00;4.00;;;;;;;;5011742;28;45572;-68
2022/03/12 13:07:24;;;;;;;;;5.00;3.75;;;;;;;;5012838;28;46016;-68
2022/03/12 13:09:54;;;;;;;;;4.25;4.25;;;;;;;;5013050;28;45498;-69
2022/03/12 13:12:35;;;;;;;;;6.00;5.00;;;;;;;;5013067;28;45558;-69
2022/03/12 13:15:01;;;;;;;;;5.75;5.75;;;;;;;;5026377;28;45933;-68
2022/03/12 13:17:30;;;;;;;;;7.25;7.25;;;;;;;;5012229;28;48338;-69
2022/03/12 13:19:56;;;;;;;;;7.00;6.00;;;;;;;;5011646;28;45306;-67
2022/03/12 13:22:21;;;;;;;;;4.75;4.75;;;;;;;;5011956;28;45518;-69
2022/03/12 13:24:46;;;;;;;;;3.25;3.25;;;;;;;;5011625;28;45539;-69
2022/03/12 13:27:38;;;;;;;;;5.00;5.00;;;;;;;;5011459;28;47557;-69
2022/03/12 13:30:09;;;;;;;;;5.75;4.75;;;;;;;;5010656;28;45506;-67
2022/03/12 13:32:35;;;;;;;;;8.50;7.00;;;;;;;;5029795;28;45548;-69
2022/03/12 13:35:01;;;;;;;;;7.75;6.75;;;;;;;;5011119;28;45485;-69
2022/03/12 13:37:26;;;;;;;;;6.25;6.25;;;;;;;;5012585;28;46654;-69
2022/03/12 13:39:59;;;;;;;;;5.75;5.75;;;;;;;;5010858;28;45454;-69
2022/03/12 13:42:25;;;;;;;;;6.75;4.25;;;;;;;;4995600;28;45342;-69
2022/03/12 13:44:50;;;;;;;;;5.50;5.25;;;;;;;;5013068;28;46065;-69
2022/03/12 13:47:17;;;;;;;;;5.50;3.75;;;;;;;;5012247;28;45720;-68
2022/03/12 13:49:42;;;;;;;;;8.50;6.75;;;;;;;;5007184;28;45605;-69
2022/03/12 13:52:14;;;;;;;;;8.00;6.75;;;;;;;;5009880;28;45462;-69
2022/03/12 13:54:39;;;;;;;;;4.75;4.75;;;;;;;;5011606;28;45588;-71
2022/03/12 13:57:05;;;;;;;;;4.25;4.25;;;;;;;;5012377;28;46061;-72
2022/03/12 13:59:34;;;;;;;;;6.00;6.00;;;;;;;;5011235;28;45722;-71
2022/03/12 14:02:00;;;;;;;;;3.00;3.00;;;;;;;;5011564;28;45462;-71
2022/03/12 14:04:27;;;;;;;;;3.75;3.75;;;;;;;;5011494;28;45516;-71
2022/03/12 14:06:52;;;;;;;;;4.50;4.00;;;;;;;;5011864;28;46605;-70
2022/03/12 14:09:21;;;;;;;;;0.75;0.75;;;;;;;;5009642;28;45309;-70
2022/03/12 14:11:50;;;;;;;;;4.00;4.00;;;;;;;;5012753;28;45433;-71
2022/03/12 14:14:18;;;;;;;;;2.00;2.00;;;;;;;;5011446;28;45378;-71
2022/03/12 14:16:50;;;;;;;;;2.00;2.00;;;;;;;;5009958;28;48124;-70
2022/03/12 14:19:19;;;;;;;;;2.00;2.00;;;;;;;;5011382;28;45465;-72
2022/03/12 14:21:46;;;;;;;;;2.00;1.75;;;;;;;;5011841;28;45649;-70
2022/03/12 14:24:17;;;;;;;;;3.50;3.50;;;;;;;;5009625;28;45386;-67
2022/03/12 14:26:48;;;;;;;;;2.00;2.00;;;;;;;;5011609;28;47422;-70
2022/03/12 14:29:26;;;;;;;;;3.75;3.75;;;;;;;;5010831;28;45521;-70
2022/03/12 14:31:53;;;;;;;;;5.00;5.00;;;;;;;;5012039;28;45440;-68
2022/03/12 14:34:18;;;;;;;;;4.75;4.50;;;;;;;;5010702;28;45413;-70
2022/03/12 14:36:45;;;;;;;;;4.00;4.00;;;;;;;;5009588;28;46088;-71
2022/03/12 14:39:13;;;;;;;;;8.75;8.75;;;;;;;;5010249;28;45557;-71
2022/03/12 14:41:39;;;;;;;;;4.50;4.00;;;;;;;;5010744;28;45489;-71